Shutesbury, MA

8:17 AM EDT on July 29, 2015 (GMT -0400)
APRSWXNET | | Change Station
CLOSE
Current Station
Personal Weather Station
Location: Shutesbury, MA
Elevation: 1148 ft
Nearby Weather Stations

Elev 1148 ft 42.44 °N, 72.43 °W | Updated 28 days ago

Partly Cloudy
Partly Cloudy
79 °F
Feels Like 79 °F
N
2
Wind Variable Wind from WNW
Gusts mph

Today
High -- | Low -- °F
--% Chance of Precip.
Yesterday
High -- | Low -- °F
Precip. -- in
5:38 AM 8:13 PM
Waxing Gibbous, 95% visible
Pressure 29.99 in
Visibility 3.0 miles
Clouds Overcast 200 ft
Dew Point 66 °F
Humidity 65%
Rainfall in
Snow Depth Not available.
UV 1 out of 12
Pollen 5.70 out of 12
Air Quality Not available.
Flu Activity Not available.
SPECI KORE 291214Z AUTO 00000KT 3SM BR OVC002 19/19 A2999 RMK AO2 T01940189

More Conditions Fewer Conditions

Pressure 29.99 in
Visibility 3.0 miles
Clouds Overcast 200 ft
Dew Point 66 °F
Humidity 65%
Rainfall in
Snow Depth Not available.
UV 1 out of 12
Pollen 5.70 out of 12
Air Quality Not available.
Flu Activity Not available.
SPECI KORE 291214Z AUTO 00000KT 3SM BR OVC002 19/19 A2999 RMK AO2 T01940189

More Conditions Fewer Conditions

10-Day Weather Forecast

×

Almanac

Astronomy

Jul. 29, 2015 Rise Set
Actual Time
Civil Twilight
Nautical Twilight
Astronomical Twilight
Moon
Length of Visible Light
Length of Day
Tomorrow will be .
, % of the Moon is Illuminated

Today's Extremes

State Highs State Lows

Community

WunderPhotos

Upload Photos

1,842,084 photos uploaded!

WunderBlogs® & News

Nearby

Air Quality

  Air Quality AQ Index Pollutant
Not available.

Snow Depth

Station Depth Elevation

Earthquake Activity

City Distance Mag. Time & Date
Minimum magnitude displayed is 2.5.

Coastal Water Temperatures

Place Temperature

Stations

Nearby Weather Stations

Station Location Temp. Windchill Dew Point Humidity Wind Precip. Elev Updated Type